sensor_id;sensor_type;location;lat;lon;timestamp;P1;durP1;ratioP1;P2;durP2;ratioP2
49320;SDS011;35817;44.498;0.166;2022-12-20T07:50:57;14.43;;;3.03;;
49320;SDS011;35817;44.498;0.166;2022-12-20T07:53:44;4.60;;;2.05;;
49320;SDS011;35817;44.498;0.166;2022-12-20T07:58:43;7.53;;;1.70;;
49320;SDS011;35817;44.498;0.166;2022-12-20T08:01:09;10.20;;;2.50;;
49320;SDS011;35817;44.498;0.166;2022-12-20T08:03:38;9.65;;;3.30;;
49320;SDS011;35817;44.498;0.166;2022-12-20T08:06:09;15.10;;;2.92;;
49320;SDS011;35817;44.498;0.166;2022-12-20T08:08:39;6.90;;;2.72;;
49320;SDS011;35817;44.498;0.166;2022-12-20T08:11:11;8.02;;;2.47;;
49320;SDS011;35817;44.498;0.166;2022-12-20T08:13:39;5.18;;;2.03;;
49320;SDS011;35817;44.498;0.166;2022-12-20T08:16:05;13.85;;;4.03;;
49320;SDS011;35817;44.498;0.166;2022-12-20T08:18:31;6.60;;;1.77;;
49320;SDS011;35817;44.498;0.166;2022-12-20T08:20:57;8.07;;;2.78;;
49320;SDS011;35817;44.498;0.166;2022-12-20T08:23:23;7.43;;;3.28;;
49320;SDS011;35817;44.498;0.166;2022-12-20T08:25:49;8.55;;;2.38;;
49320;SDS011;35817;44.498;0.166;2022-12-20T08:28:14;7.00;;;2.78;;
49320;SDS011;35817;44.498;0.166;2022-12-20T08:30:40;11.63;;;2.45;;
49320;SDS011;35817;44.498;0.166;2022-12-20T08:33:06;7.55;;;2.10;;
49320;SDS011;35817;44.498;0.166;2022-12-20T08:35:35;9.07;;;3.10;;
49320;SDS011;35817;44.498;0.166;2022-12-20T08:38:00;6.20;;;2.38;;
49320;SDS011;35817;44.498;0.166;2022-12-20T08:40:26;9.18;;;2.13;;
49320;SDS011;35817;44.498;0.166;2022-12-20T08:42:52;6.35;;;1.83;;
49320;SDS011;35817;44.498;0.166;2022-12-20T08:45:18;14.13;;;2.97;;
49320;SDS011;35817;44.498;0.166;2022-12-20T08:47:44;5.05;;;1.80;;
49320;SDS011;35817;44.498;0.166;2022-12-20T08:50:10;7.72;;;2.30;;
49320;SDS011;35817;44.498;0.166;2022-12-20T08:52:35;5.13;;;2.05;;
49320;SDS011;35817;44.498;0.166;2022-12-20T08:55:01;9.20;;;3.03;;
49320;SDS011;35817;44.498;0.166;2022-12-20T08:57:27;14.18;;;2.35;;
49320;SDS011;35817;44.498;0.166;2022-12-20T08:59:53;7.43;;;2.08;;
49320;SDS011;35817;44.498;0.166;2022-12-20T09:02:18;8.70;;;1.85;;
49320;SDS011;35817;44.498;0.166;2022-12-20T09:04:44;12.25;;;2.88;;
49320;SDS011;35817;44.498;0.166;2022-12-20T09:07:10;13.30;;;2.72;;
49320;SDS011;35817;44.498;0.166;2022-12-20T09:09:36;5.72;;;2.13;;
49320;SDS011;35817;44.498;0.166;2022-12-20T09:12:01;5.50;;;1.70;;
49320;SDS011;35817;44.498;0.166;2022-12-20T09:14:27;6.53;;;1.90;;
49320;SDS011;35817;44.498;0.166;2022-12-20T09:16:53;4.95;;;2.28;;
49320;SDS011;35817;44.498;0.166;2022-12-20T09:19:19;7.47;;;2.40;;
49320;SDS011;35817;44.498;0.166;2022-12-20T09:21:45;12.57;;;2.28;;
49320;SDS011;35817;44.498;0.166;2022-12-20T09:24:10;12.15;;;2.65;;
49320;SDS011;35817;44.498;0.166;2022-12-20T09:26:36;4.10;;;2.50;;
49320;SDS011;35817;44.498;0.166;2022-12-20T09:29:02;5.88;;;1.25;;
49320;SDS011;35817;44.498;0.166;2022-12-20T09:31:29;6.80;;;3.63;;
49320;SDS011;35817;44.498;0.166;2022-12-20T09:33:55;7.13;;;2.95;;
49320;SDS011;35817;44.498;0.166;2022-12-20T09:36:22;10.68;;;2.35;;
49320;SDS011;35817;44.498;0.166;2022-12-20T09:38:49;6.93;;;2.20;;
49320;SDS011;35817;44.498;0.166;2022-12-20T09:43:50;9.82;;;2.75;;
49320;SDS011;35817;44.498;0.166;2022-12-20T09:46:17;5.72;;;2.33;;
49320;SDS011;35817;44.498;0.166;2022-12-20T09:48:43;5.50;;;1.45;;
49320;SDS011;35817;44.498;0.166;2022-12-20T09:51:29;7.50;;;1.98;;
49320;SDS011;35817;44.498;0.166;2022-12-20T09:54:31;6.63;;;2.35;;
49320;SDS011;35817;44.498;0.166;2022-12-20T09:59:39;5.28;;;1.50;;
49320;SDS011;35817;44.498;0.166;2022-12-20T10:02:08;7.80;;;2.20;;
49320;SDS011;35817;44.498;0.166;2022-12-20T10:04:36;8.50;;;2.08;;
49320;SDS011;35817;44.498;0.166;2022-12-20T10:10:02;6.40;;;1.67;;
49320;SDS011;35817;44.498;0.166;2022-12-20T10:12:54;14.75;;;3.17;;
49320;SDS011;35817;44.498;0.166;2022-12-20T10:21:51;9.05;;;4.13;;
49320;SDS011;35817;44.498;0.166;2022-12-20T10:24:31;10.15;;;2.92;;
49320;SDS011;35817;44.498;0.166;2022-12-20T10:27:19;5.93;;;2.35;;
49320;SDS011;35817;44.498;0.166;2022-12-20T10:29:45;8.13;;;1.73;;
49320;SDS011;35817;44.498;0.166;2022-12-20T10:32:14;10.70;;;2.58;;
49320;SDS011;35817;44.498;0.166;2022-12-20T10:35:29;8.63;;;2.90;;
49320;SDS011;35817;44.498;0.166;2022-12-20T10:37:34;5.93;;;2.17;;
49320;SDS011;35817;44.498;0.166;2022-12-20T10:40:00;10.13;;;2.10;;
49320;SDS011;35817;44.498;0.166;2022-12-20T10:45:03;8.20;;;3.60;;
49320;SDS011;35817;44.498;0.166;2022-12-20T10:47:47;5.82;;;2.70;;
49320;SDS011;35817;44.498;0.166;2022-12-20T10:50:17;7.50;;;2.63;;
49320;SDS011;35817;44.498;0.166;2022-12-20T10:52:45;11.30;;;2.65;;
49320;SDS011;35817;44.498;0.166;2022-12-20T10:55:34;5.63;;;1.58;;
49320;SDS011;35817;44.498;0.166;2022-12-20T10:58:12;6.78;;;1.73;;
49320;SDS011;35817;44.498;0.166;2022-12-20T11:00:47;9.77;;;2.78;;
49320;SDS011;35817;44.498;0.166;2022-12-20T11:03:15;5.60;;;1.48;;
49320;SDS011;35817;44.498;0.166;2022-12-20T11:06:20;8.52;;;2.35;;
49320;SDS011;35817;44.498;0.166;2022-12-20T11:08:40;10.60;;;3.08;;
49320;SDS011;35817;44.498;0.166;2022-12-20T11:11:10;7.35;;;1.92;;
49320;SDS011;35817;44.498;0.166;2022-12-20T11:13:40;6.57;;;2.53;;
49320;SDS011;35817;44.498;0.166;2022-12-20T11:16:20;3.42;;;1.33;;
49320;SDS011;35817;44.498;0.166;2022-12-20T11:24:44;8.10;;;2.78;;
49320;SDS011;35817;44.498;0.166;2022-12-20T11:30:22;14.05;;;2.80;;
49320;SDS011;35817;44.498;0.166;2022-12-20T11:32:55;8.32;;;2.20;;
49320;SDS011;35817;44.498;0.166;2022-12-20T11:35:47;10.00;;;3.15;;
49320;SDS011;35817;44.498;0.166;2022-12-20T11:48:13;7.70;;;3.90;;
49320;SDS011;35817;44.498;0.166;2022-12-20T11:53:49;12.25;;;3.13;;
49320;SDS011;35817;44.498;0.166;2022-12-20T11:59:09;12.35;;;4.38;;
49320;SDS011;35817;44.498;0.166;2022-12-20T12:01:47;5.75;;;2.33;;
49320;SDS011;35817;44.498;0.166;2022-12-20T12:04:29;8.23;;;3.42;;
49320;SDS011;35817;44.498;0.166;2022-12-20T12:07:00;12.02;;;4.13;;
49320;SDS011;35817;44.498;0.166;2022-12-20T12:09:41;7.55;;;2.47;;
49320;SDS011;35817;44.498;0.166;2022-12-20T12:12:43;13.15;;;3.78;;
49320;SDS011;35817;44.498;0.166;2022-12-20T12:18:31;7.22;;;2.35;;
49320;SDS011;35817;44.498;0.166;2022-12-20T12:21:05;5.55;;;2.92;;
49320;SDS011;35817;44.498;0.166;2022-12-20T12:23:58;4.90;;;1.90;;
49320;SDS011;35817;44.498;0.166;2022-12-20T12:26:40;5.13;;;2.08;;
49320;SDS011;35817;44.498;0.166;2022-12-20T12:29:12;4.70;;;2.22;;
49320;SDS011;35817;44.498;0.166;2022-12-20T12:34:29;6.03;;;2.47;;
49320;SDS011;35817;44.498;0.166;2022-12-20T12:40:09;6.55;;;2.10;;
49320;SDS011;35817;44.498;0.166;2022-12-20T12:48:53;7.82;;;1.73;;
49320;SDS011;35817;44.498;0.166;2022-12-20T12:51:31;7.82;;;1.55;;
49320;SDS011;35817;44.498;0.166;2022-12-20T12:54:03;7.18;;;1.95;;
49320;SDS011;35817;44.498;0.166;2022-12-20T12:56:41;9.75;;;3.08;;
49320;SDS011;35817;44.498;0.166;2022-12-20T13:04:28;6.55;;;1.73;;
49320;SDS011;35817;44.498;0.166;2022-12-20T13:07:56;5.05;;;1.52;;
49320;SDS011;35817;44.498;0.166;2022-12-20T13:17:59;7.00;;;2.63;;
49320;SDS011;35817;44.498;0.166;2022-12-20T13:20:40;9.43;;;2.53;;
49320;SDS011;35817;44.498;0.166;2022-12-20T13:25:37;3.70;;;2.45;;
49320;SDS011;35817;44.498;0.166;2022-12-20T13:30:40;3.92;;;2.40;;
49320;SDS011;35817;44.498;0.166;2022-12-20T13:35:53;9.88;;;3.20;;
49320;SDS011;35817;44.498;0.166;2022-12-20T13:43:50;6.72;;;2.63;;
49320;SDS011;35817;44.498;0.166;2022-12-20T13:46:21;7.05;;;2.15;;
49320;SDS011;35817;44.498;0.166;2022-12-20T13:48:56;4.78;;;2.15;;
49320;SDS011;35817;44.498;0.166;2022-12-20T13:51:27;4.43;;;1.52;;
49320;SDS011;35817;44.498;0.166;2022-12-20T13:58:53;2.42;;;2.17;;
49320;SDS011;35817;44.498;0.166;2022-12-20T14:01:30;6.53;;;1.95;;
49320;SDS011;35817;44.498;0.166;2022-12-20T14:03:58;11.15;;;1.92;;
49320;SDS011;35817;44.498;0.166;2022-12-20T14:06:28;4.93;;;1.42;;
49320;SDS011;35817;44.498;0.166;2022-12-20T14:08:54;8.32;;;3.47;;
49320;SDS011;35817;44.498;0.166;2022-12-20T14:11:21;6.05;;;1.85;;
49320;SDS011;35817;44.498;0.166;2022-12-20T14:13:53;9.38;;;2.53;;
49320;SDS011;35817;44.498;0.166;2022-12-20T14:16:21;10.30;;;2.83;;
49320;SDS011;35817;44.498;0.166;2022-12-20T14:18:48;3.35;;;1.25;;
49320;SDS011;35817;44.498;0.166;2022-12-20T14:21:15;5.60;;;2.67;;
49320;SDS011;35817;44.498;0.166;2022-12-20T14:23:42;8.20;;;2.10;;
49320;SDS011;35817;44.498;0.166;2022-12-20T14:26:12;12.93;;;4.38;;
49320;SDS011;35817;44.498;0.166;2022-12-20T14:28:50;11.18;;;2.80;;
49320;SDS011;35817;44.498;0.166;2022-12-20T14:31:25;7.20;;;2.22;;
49320;SDS011;35817;44.498;0.166;2022-12-20T14:34:28;13.40;;;2.40;;
49320;SDS011;35817;44.498;0.166;2022-12-20T14:40:03;5.50;;;2.30;;
49320;SDS011;35817;44.498;0.166;2022-12-20T14:42:37;6.30;;;2.25;;
49320;SDS011;35817;44.498;0.166;2022-12-20T14:47:40;11.82;;;3.08;;
49320;SDS011;35817;44.498;0.166;2022-12-20T14:50:35;10.57;;;3.53;;
49320;SDS011;35817;44.498;0.166;2022-12-20T14:53:02;5.30;;;2.40;;
49320;SDS011;35817;44.498;0.166;2022-12-20T14:55:43;10.15;;;2.20;;
49320;SDS011;35817;44.498;0.166;2022-12-20T14:58:23;10.20;;;2.42;;
49320;SDS011;35817;44.498;0.166;2022-12-20T15:00:56;13.02;;;2.85;;
49320;SDS011;35817;44.498;0.166;2022-12-20T15:03:26;7.25;;;2.50;;
49320;SDS011;35817;44.498;0.166;2022-12-20T15:05:53;6.13;;;2.22;;
49320;SDS011;35817;44.498;0.166;2022-12-20T15:08:30;18.15;;;3.38;;
49320;SDS011;35817;44.498;0.166;2022-12-20T15:13:44;11.23;;;4.53;;
49320;SDS011;35817;44.498;0.166;2022-12-20T15:18:42;10.80;;;3.95;;
49320;SDS011;35817;44.498;0.166;2022-12-20T15:23:49;5.07;;;2.70;;
49320;SDS011;35817;44.498;0.166;2022-12-20T15:26:18;6.65;;;3.10;;
49320;SDS011;35817;44.498;0.166;2022-12-20T15:28:46;6.15;;;3.28;;
49320;SDS011;35817;44.498;0.166;2022-12-20T15:31:12;7.07;;;3.47;;
49320;SDS011;35817;44.498;0.166;2022-12-20T15:33:41;6.00;;;1.92;;
49320;SDS011;35817;44.498;0.166;2022-12-20T15:36:15;9.02;;;2.17;;
49320;SDS011;35817;44.498;0.166;2022-12-20T15:38:42;4.25;;;1.75;;
49320;SDS011;35817;44.498;0.166;2022-12-20T15:41:12;3.75;;;1.58;;
49320;SDS011;35817;44.498;0.166;2022-12-20T15:43:53;8.10;;;3.08;;
49320;SDS011;35817;44.498;0.166;2022-12-20T15:46:21;6.82;;;2.17;;
49320;SDS011;35817;44.498;0.166;2022-12-20T15:48:47;9.73;;;2.45;;
49320;SDS011;35817;44.498;0.166;2022-12-20T15:51:18;5.53;;;2.88;;
49320;SDS011;35817;44.498;0.166;2022-12-20T15:53:46;13.05;;;6.47;;
49320;SDS011;35817;44.498;0.166;2022-12-20T15:56:15;13.80;;;7.45;;
49320;SDS011;35817;44.498;0.166;2022-12-20T15:58:43;8.05;;;2.78;;
49320;SDS011;35817;44.498;0.166;2022-12-20T16:01:11;6.07;;;2.67;;
49320;SDS011;35817;44.498;0.166;2022-12-20T16:03:44;9.95;;;2.88;;
49320;SDS011;35817;44.498;0.166;2022-12-20T16:06:10;12.02;;;3.05;;
49320;SDS011;35817;44.498;0.166;2022-12-20T16:08:39;8.65;;;2.40;;
49320;SDS011;35817;44.498;0.166;2022-12-20T16:11:06;6.60;;;2.53;;
49320;SDS011;35817;44.498;0.166;2022-12-20T16:13:41;9.00;;;2.90;;
49320;SDS011;35817;44.498;0.166;2022-12-20T16:16:11;9.90;;;2.70;;
49320;SDS011;35817;44.498;0.166;2022-12-20T16:18:45;12.95;;;3.15;;
49320;SDS011;35817;44.498;0.166;2022-12-20T16:21:21;12.90;;;4.32;;
49320;SDS011;35817;44.498;0.166;2022-12-20T16:23:48;12.75;;;4.40;;
49320;SDS011;35817;44.498;0.166;2022-12-20T16:26:16;14.80;;;6.63;;
49320;SDS011;35817;44.498;0.166;2022-12-20T16:28:44;11.48;;;5.40;;
49320;SDS011;35817;44.498;0.166;2022-12-20T16:31:32;10.15;;;5.80;;
49320;SDS011;35817;44.498;0.166;2022-12-20T16:33:58;11.18;;;4.75;;
49320;SDS011;35817;44.498;0.166;2022-12-20T16:36:27;7.07;;;4.47;;
49320;SDS011;35817;44.498;0.166;2022-12-20T16:38:53;6.63;;;4.78;;
49320;SDS011;35817;44.498;0.166;2022-12-20T16:41:20;6.45;;;3.47;;
49320;SDS011;35817;44.498;0.166;2022-12-20T16:43:52;7.53;;;5.10;;
49320;SDS011;35817;44.498;0.166;2022-12-20T16:46:21;10.50;;;3.63;;
49320;SDS011;35817;44.498;0.166;2022-12-20T16:48:48;10.43;;;5.47;;
49320;SDS011;35817;44.498;0.166;2022-12-20T16:51:30;10.02;;;5.15;;
49320;SDS011;35817;44.498;0.166;2022-12-20T16:53:59;14.20;;;4.75;;
49320;SDS011;35817;44.498;0.166;2022-12-20T16:56:29;11.18;;;4.05;;
49320;SDS011;35817;44.498;0.166;2022-12-20T16:58:55;12.20;;;4.22;;
49320;SDS011;35817;44.498;0.166;2022-12-20T17:01:32;6.35;;;3.05;;
49320;SDS011;35817;44.498;0.166;2022-12-20T17:04:00;11.15;;;3.75;;
49320;SDS011;35817;44.498;0.166;2022-12-20T17:06:26;7.10;;;3.28;;
49320;SDS011;35817;44.498;0.166;2022-12-20T17:08:52;15.63;;;6.32;;
49320;SDS011;35817;44.498;0.166;2022-12-20T17:11:20;9.05;;;3.83;;
49320;SDS011;35817;44.498;0.166;2022-12-20T17:13:48;6.53;;;3.63;;
49320;SDS011;35817;44.498;0.166;2022-12-20T17:16:16;10.35;;;4.00;;
49320;SDS011;35817;44.498;0.166;2022-12-20T17:18:45;8.38;;;3.92;;
49320;SDS011;35817;44.498;0.166;2022-12-20T17:23:47;8.55;;;4.03;;
49320;SDS011;35817;44.498;0.166;2022-12-20T17:26:14;7.03;;;4.45;;
49320;SDS011;35817;44.498;0.166;2022-12-20T17:28:42;13.60;;;6.13;;
49320;SDS011;35817;44.498;0.166;2022-12-20T17:31:16;9.88;;;5.43;;
49320;SDS011;35817;44.498;0.166;2022-12-20T17:33:45;10.85;;;6.88;;
49320;SDS011;35817;44.498;0.166;2022-12-20T17:36:11;10.93;;;5.38;;
49320;SDS011;35817;44.498;0.166;2022-12-20T17:38:36;9.02;;;4.57;;
49320;SDS011;35817;44.498;0.166;2022-12-20T17:41:02;9.27;;;3.95;;
49320;SDS011;35817;44.498;0.166;2022-12-20T17:43:28;8.85;;;3.75;;
49320;SDS011;35817;44.498;0.166;2022-12-20T17:45:53;18.05;;;5.13;;
49320;SDS011;35817;44.498;0.166;2022-12-20T17:48:19;12.32;;;4.78;;
49320;SDS011;35817;44.498;0.166;2022-12-20T17:50:45;11.80;;;5.32;;
49320;SDS011;35817;44.498;0.166;2022-12-20T17:53:11;18.85;;;5.68;;
49320;SDS011;35817;44.498;0.166;2022-12-20T17:55:36;9.55;;;4.38;;
49320;SDS011;35817;44.498;0.166;2022-12-20T17:58:02;16.83;;;5.85;;
49320;SDS011;35817;44.498;0.166;2022-12-20T18:00:29;14.10;;;5.32;;
49320;SDS011;35817;44.498;0.166;2022-12-20T18:02:56;9.63;;;4.53;;
49320;SDS011;35817;44.498;0.166;2022-12-20T18:05:22;8.57;;;5.50;;
49320;SDS011;35817;44.498;0.166;2022-12-20T18:07:49;11.93;;;5.70;;
49320;SDS011;35817;44.498;0.166;2022-12-20T18:10:19;8.43;;;4.32;;
49320;SDS011;35817;44.498;0.166;2022-12-20T18:12:47;21.67;;;8.32;;
49320;SDS011;35817;44.498;0.166;2022-12-20T18:15:13;9.27;;;6.45;;
49320;SDS011;35817;44.498;0.166;2022-12-20T18:17:40;15.05;;;5.88;;
49320;SDS011;35817;44.498;0.166;2022-12-20T18:20:06;12.57;;;7.88;;
49320;SDS011;35817;44.498;0.166;2022-12-20T18:22:34;10.85;;;4.82;;
49320;SDS011;35817;44.498;0.166;2022-12-20T18:25:00;10.32;;;5.18;;
49320;SDS011;35817;44.498;0.166;2022-12-20T18:27:39;12.57;;;6.00;;
49320;SDS011;35817;44.498;0.166;2022-12-20T18:30:06;14.00;;;4.47;;
49320;SDS011;35817;44.498;0.166;2022-12-20T18:32:33;8.45;;;4.47;;
49320;SDS011;35817;44.498;0.166;2022-12-20T18:34:58;11.38;;;4.05;;
49320;SDS011;35817;44.498;0.166;2022-12-20T18:37:24;8.10;;;4.97;;
49320;SDS011;35817;44.498;0.166;2022-12-20T18:39:50;9.98;;;4.72;;
49320;SDS011;35817;44.498;0.166;2022-12-20T18:42:16;7.32;;;4.18;;
49320;SDS011;35817;44.498;0.166;2022-12-20T18:44:41;11.15;;;3.80;;
49320;SDS011;35817;44.498;0.166;2022-12-20T18:47:07;11.50;;;4.72;;
49320;SDS011;35817;44.498;0.166;2022-12-20T18:49:33;13.82;;;4.50;;
49320;SDS011;35817;44.498;0.166;2022-12-20T18:51:59;6.38;;;5.10;;
49320;SDS011;35817;44.498;0.166;2022-12-20T18:54:25;14.07;;;6.60;;
49320;SDS011;35817;44.498;0.166;2022-12-20T18:56:50;21.92;;;13.13;;
49320;SDS011;35817;44.498;0.166;2022-12-20T18:59:16;22.17;;;11.82;;
49320;SDS011;35817;44.498;0.166;2022-12-20T19:01:42;12.10;;;8.13;;
49320;SDS011;35817;44.498;0.166;2022-12-20T19:04:08;20.48;;;6.25;;
49320;SDS011;35817;44.498;0.166;2022-12-20T19:06:35;7.97;;;5.13;;
49320;SDS011;35817;44.498;0.166;2022-12-20T19:09:02;16.38;;;7.38;;
49320;SDS011;35817;44.498;0.166;2022-12-20T19:11:30;15.95;;;8.15;;
49320;SDS011;35817;44.498;0.166;2022-12-20T19:13:56;19.38;;;6.85;;
49320;SDS011;35817;44.498;0.166;2022-12-20T19:16:23;12.35;;;8.20;;
49320;SDS011;35817;44.498;0.166;2022-12-20T19:18:50;16.35;;;8.30;;
49320;SDS011;35817;44.498;0.166;2022-12-20T19:21:17;18.58;;;9.23;;
49320;SDS011;35817;44.498;0.166;2022-12-20T19:23:46;16.17;;;8.88;;
49320;SDS011;35817;44.498;0.166;2022-12-20T19:26:13;16.13;;;7.70;;
49320;SDS011;35817;44.498;0.166;2022-12-20T19:28:40;14.45;;;9.45;;
49320;SDS011;35817;44.498;0.166;2022-12-20T19:31:07;14.45;;;7.00;;
49320;SDS011;35817;44.498;0.166;2022-12-20T19:33:44;10.35;;;6.80;;
49320;SDS011;35817;44.498;0.166;2022-12-20T19:36:12;21.40;;;8.18;;
49320;SDS011;35817;44.498;0.166;2022-12-20T19:38:44;12.38;;;7.63;;
49320;SDS011;35817;44.498;0.166;2022-12-20T19:41:11;15.68;;;6.35;;
49320;SDS011;35817;44.498;0.166;2022-12-20T19:43:37;11.43;;;6.50;;
49320;SDS011;35817;44.498;0.166;2022-12-20T19:46:04;17.48;;;7.53;;
49320;SDS011;35817;44.498;0.166;2022-12-20T19:48:33;15.30;;;8.40;;
49320;SDS011;35817;44.498;0.166;2022-12-20T19:51:03;13.20;;;7.30;;
49320;SDS011;35817;44.498;0.166;2022-12-20T19:53:31;14.38;;;7.38;;
49320;SDS011;35817;44.498;0.166;2022-12-20T19:55:57;17.33;;;8.35;;
49320;SDS011;35817;44.498;0.166;2022-12-20T19:58:23;12.65;;;7.50;;
49320;SDS011;35817;44.498;0.166;2022-12-20T20:00:49;7.50;;;5.55;;
49320;SDS011;35817;44.498;0.166;2022-12-20T20:03:15;21.23;;;11.27;;
49320;SDS011;35817;44.498;0.166;2022-12-20T20:05:42;16.52;;;8.20;;
49320;SDS011;35817;44.498;0.166;2022-12-20T20:08:08;12.18;;;6.10;;
49320;SDS011;35817;44.498;0.166;2022-12-20T20:10:34;21.33;;;8.85;;
49320;SDS011;35817;44.498;0.166;2022-12-20T20:13:00;10.63;;;7.30;;
49320;SDS011;35817;44.498;0.166;2022-12-20T20:15:27;19.48;;;10.50;;
49320;SDS011;35817;44.498;0.166;2022-12-20T20:17:52;19.00;;;9.95;;
49320;SDS011;35817;44.498;0.166;2022-12-20T20:20:19;14.88;;;6.43;;
49320;SDS011;35817;44.498;0.166;2022-12-20T20:22:45;9.52;;;6.13;;
49320;SDS011;35817;44.498;0.166;2022-12-20T20:25:10;16.50;;;8.30;;
49320;SDS011;35817;44.498;0.166;2022-12-20T20:27:36;14.80;;;6.28;;
49320;SDS011;35817;44.498;0.166;2022-12-20T20:30:03;16.73;;;6.55;;
49320;SDS011;35817;44.498;0.166;2022-12-20T20:32:30;11.88;;;5.72;;
49320;SDS011;35817;44.498;0.166;2022-12-20T20:34:55;12.20;;;7.35;;
49320;SDS011;35817;44.498;0.166;2022-12-20T20:37:21;11.18;;;8.23;;
49320;SDS011;35817;44.498;0.166;2022-12-20T20:39:47;16.80;;;10.52;;
49320;SDS011;35817;44.498;0.166;2022-12-20T20:42:13;19.75;;;7.20;;
49320;SDS011;35817;44.498;0.166;2022-12-20T20:44:38;10.00;;;5.28;;
49320;SDS011;35817;44.498;0.166;2022-12-20T20:47:04;21.65;;;9.13;;
49320;SDS011;35817;44.498;0.166;2022-12-20T20:49:30;10.07;;;5.85;;
49320;SDS011;35817;44.498;0.166;2022-12-20T20:51:56;13.35;;;7.35;;
49320;SDS011;35817;44.498;0.166;2022-12-20T20:54:22;13.38;;;5.10;;
49320;SDS011;35817;44.498;0.166;2022-12-20T20:56:47;11.75;;;7.35;;
49320;SDS011;35817;44.498;0.166;2022-12-20T20:59:13;13.02;;;6.03;;
49320;SDS011;35817;44.498;0.166;2022-12-20T21:01:39;7.93;;;3.90;;
49320;SDS011;35817;44.498;0.166;2022-12-20T21:04:04;9.48;;;5.15;;
49320;SDS011;35817;44.498;0.166;2022-12-20T21:06:30;9.80;;;5.45;;
49320;SDS011;35817;44.498;0.166;2022-12-20T21:08:56;7.55;;;5.82;;
49320;SDS011;35817;44.498;0.166;2022-12-20T21:11:22;12.40;;;7.00;;
49320;SDS011;35817;44.498;0.166;2022-12-20T21:13:47;6.05;;;4.13;;
49320;SDS011;35817;44.498;0.166;2022-12-20T21:16:15;7.18;;;4.90;;
49320;SDS011;35817;44.498;0.166;2022-12-20T21:18:45;11.35;;;4.80;;
49320;SDS011;35817;44.498;0.166;2022-12-20T21:21:14;8.30;;;3.95;;
49320;SDS011;35817;44.498;0.166;2022-12-20T21:23:42;6.93;;;4.45;;
49320;SDS011;35817;44.498;0.166;2022-12-20T21:26:10;10.43;;;4.88;;
49320;SDS011;35817;44.498;0.166;2022-12-20T21:28:36;8.20;;;4.47;;
49320;SDS011;35817;44.498;0.166;2022-12-20T21:31:04;8.35;;;4.00;;
49320;SDS011;35817;44.498;0.166;2022-12-20T21:33:33;12.73;;;4.65;;
49320;SDS011;35817;44.498;0.166;2022-12-20T21:36:00;11.75;;;4.88;;
49320;SDS011;35817;44.498;0.166;2022-12-20T21:38:27;7.35;;;4.43;;
49320;SDS011;35817;44.498;0.166;2022-12-20T21:41:00;10.52;;;5.30;;
49320;SDS011;35817;44.498;0.166;2022-12-20T21:43:27;15.82;;;6.00;;
49320;SDS011;35817;44.498;0.166;2022-12-20T21:45:53;12.55;;;5.00;;
49320;SDS011;35817;44.498;0.166;2022-12-20T21:48:19;9.23;;;4.00;;
49320;SDS011;35817;44.498;0.166;2022-12-20T21:50:44;11.70;;;4.68;;
49320;SDS011;35817;44.498;0.166;2022-12-20T21:53:21;10.80;;;5.10;;
49320;SDS011;35817;44.498;0.166;2022-12-20T21:55:46;10.20;;;4.53;;
49320;SDS011;35817;44.498;0.166;2022-12-20T21:58:12;9.82;;;4.07;;
49320;SDS011;35817;44.498;0.166;2022-12-20T22:00:38;8.05;;;4.28;;
49320;SDS011;35817;44.498;0.166;2022-12-20T22:03:04;6.20;;;3.90;;
49320;SDS011;35817;44.498;0.166;2022-12-20T22:05:29;10.15;;;5.00;;
49320;SDS011;35817;44.498;0.166;2022-12-20T22:07:55;8.85;;;4.20;;
49320;SDS011;35817;44.498;0.166;2022-12-20T22:10:20;6.00;;;4.20;;
49320;SDS011;35817;44.498;0.166;2022-12-20T22:12:46;11.77;;;2.55;;
49320;SDS011;35817;44.498;0.166;2022-12-20T22:15:12;13.48;;;3.35;;
49320;SDS011;35817;44.498;0.166;2022-12-20T22:17:38;11.48;;;3.90;;
49320;SDS011;35817;44.498;0.166;2022-12-20T22:20:04;7.63;;;4.07;;
49320;SDS011;35817;44.498;0.166;2022-12-20T22:22:30;13.70;;;3.55;;
49320;SDS011;35817;44.498;0.166;2022-12-20T22:24:56;8.05;;;4.25;;
49320;SDS011;35817;44.498;0.166;2022-12-20T22:27:21;9.73;;;4.40;;
49320;SDS011;35817;44.498;0.166;2022-12-20T22:29:48;7.03;;;3.95;;
49320;SDS011;35817;44.498;0.166;2022-12-20T22:32:14;13.75;;;5.20;;
49320;SDS011;35817;44.498;0.166;2022-12-20T22:34:40;21.45;;;7.65;;
49320;SDS011;35817;44.498;0.166;2022-12-20T22:37:06;16.10;;;7.47;;
49320;SDS011;35817;44.498;0.166;2022-12-20T22:39:31;20.15;;;6.15;;
49320;SDS011;35817;44.498;0.166;2022-12-20T22:41:57;9.52;;;7.00;;
49320;SDS011;35817;44.498;0.166;2022-12-20T22:44:23;12.40;;;7.80;;
49320;SDS011;35817;44.498;0.166;2022-12-20T22:46:48;15.07;;;9.48;;
49320;SDS011;35817;44.498;0.166;2022-12-20T22:49:16;15.93;;;8.85;;
49320;SDS011;35817;44.498;0.166;2022-12-20T22:51:42;11.13;;;6.68;;
49320;SDS011;35817;44.498;0.166;2022-12-20T22:54:07;15.18;;;6.68;;
49320;SDS011;35817;44.498;0.166;2022-12-20T22:56:33;9.40;;;4.95;;
49320;SDS011;35817;44.498;0.166;2022-12-20T22:58:59;8.35;;;5.97;;
49320;SDS011;35817;44.498;0.166;2022-12-20T23:01:25;9.43;;;5.15;;
49320;SDS011;35817;44.498;0.166;2022-12-20T23:03:50;10.02;;;5.75;;
49320;SDS011;35817;44.498;0.166;2022-12-20T23:06:17;7.25;;;4.65;;
49320;SDS011;35817;44.498;0.166;2022-12-20T23:08:44;6.65;;;4.82;;
49320;SDS011;35817;44.498;0.166;2022-12-20T23:11:12;7.38;;;5.93;;
49320;SDS011;35817;44.498;0.166;2022-12-20T23:14:02;13.35;;;5.25;;
49320;SDS011;35817;44.498;0.166;2022-12-20T23:16:47;11.13;;;5.30;;
49320;SDS011;35817;44.498;0.166;2022-12-20T23:19:14;8.20;;;4.53;;
49320;SDS011;35817;44.498;0.166;2022-12-20T23:21:39;10.05;;;4.03;;
49320;SDS011;35817;44.498;0.166;2022-12-20T23:24:23;11.05;;;4.35;;
49320;SDS011;35817;44.498;0.166;2022-12-20T23:26:49;9.30;;;4.28;;
49320;SDS011;35817;44.498;0.166;2022-12-20T23:29:15;7.03;;;2.85;;
49320;SDS011;35817;44.498;0.166;2022-12-20T23:31:41;8.15;;;4.20;;
49320;SDS011;35817;44.498;0.166;2022-12-20T23:34:06;7.63;;;3.05;;
49320;SDS011;35817;44.498;0.166;2022-12-20T23:36:32;7.57;;;3.40;;
49320;SDS011;35817;44.498;0.166;2022-12-20T23:38:58;8.40;;;4.53;;
49320;SDS011;35817;44.498;0.166;2022-12-20T23:41:24;5.85;;;2.80;;
49320;SDS011;35817;44.498;0.166;2022-12-20T23:43:49;5.13;;;2.85;;
49320;SDS011;35817;44.498;0.166;2022-12-20T23:46:16;9.10;;;3.65;;
49320;SDS011;35817;44.498;0.166;2022-12-20T23:48:43;9.48;;;2.83;;
49320;SDS011;35817;44.498;0.166;2022-12-20T23:51:09;4.28;;;2.60;;
49320;SDS011;35817;44.498;0.166;2022-12-20T23:53:36;5.40;;;2.40;;
49320;SDS011;35817;44.498;0.166;2022-12-20T23:56:03;5.90;;;2.50;;
49320;SDS011;35817;44.498;0.166;2022-12-20T23:58:37;8.20;;;3.00;;
